sensor_id;sensor_type;location;lat;lon;timestamp;P1;durP1;ratioP1;P2;durP2;ratioP2
11384;SDS011;5747;56.748;13.882;2023-09-18T00:00:05;6.17;;;4.70;;
11384;SDS011;5747;56.748;13.882;2023-09-18T00:02:38;5.03;;;4.17;;
11384;SDS011;5747;56.748;13.882;2023-09-18T00:05:06;6.80;;;4.57;;
11384;SDS011;5747;56.748;13.882;2023-09-18T00:07:36;6.73;;;4.37;;
11384;SDS011;5747;56.748;13.882;2023-09-18T00:10:04;5.67;;;4.70;;
11384;SDS011;5747;56.748;13.882;2023-09-18T00:12:33;7.90;;;4.43;;
11384;SDS011;5747;56.748;13.882;2023-09-18T00:15:01;5.70;;;4.10;;
11384;SDS011;5747;56.748;13.882;2023-09-18T00:17:30;4.70;;;4.20;;
11384;SDS011;5747;56.748;13.882;2023-09-18T00:19:58;4.73;;;4.13;;
11384;SDS011;5747;56.748;13.882;2023-09-18T00:22:26;7.27;;;4.20;;
11384;SDS011;5747;56.748;13.882;2023-09-18T00:24:56;5.90;;;4.33;;
11384;SDS011;5747;56.748;13.882;2023-09-18T00:27:24;7.23;;;4.17;;
11384;SDS011;5747;56.748;13.882;2023-09-18T00:29:53;5.10;;;3.80;;
11384;SDS011;5747;56.748;13.882;2023-09-18T00:32:21;6.73;;;4.27;;
11384;SDS011;5747;56.748;13.882;2023-09-18T00:34:49;4.30;;;3.77;;
11384;SDS011;5747;56.748;13.882;2023-09-18T00:37:17;8.57;;;4.43;;
11384;SDS011;5747;56.748;13.882;2023-09-18T00:39:45;5.27;;;3.77;;
11384;SDS011;5747;56.748;13.882;2023-09-18T00:42:15;6.27;;;4.63;;
11384;SDS011;5747;56.748;13.882;2023-09-18T00:44:44;5.50;;;4.10;;
11384;SDS011;5747;56.748;13.882;2023-09-18T00:47:12;5.67;;;3.70;;
11384;SDS011;5747;56.748;13.882;2023-09-18T00:49:43;4.87;;;4.03;;
11384;SDS011;5747;56.748;13.882;2023-09-18T00:52:14;4.87;;;3.77;;
11384;SDS011;5747;56.748;13.882;2023-09-18T00:54:44;5.53;;;3.87;;
11384;SDS011;5747;56.748;13.882;2023-09-18T00:57:16;4.27;;;3.70;;
11384;SDS011;5747;56.748;13.882;2023-09-18T00:59:44;6.40;;;3.50;;
11384;SDS011;5747;56.748;13.882;2023-09-18T01:02:13;4.07;;;3.30;;
11384;SDS011;5747;56.748;13.882;2023-09-18T01:04:41;6.27;;;3.93;;
11384;SDS011;5747;56.748;13.882;2023-09-18T01:07:10;6.93;;;3.90;;
11384;SDS011;5747;56.748;13.882;2023-09-18T01:09:39;4.90;;;3.67;;
11384;SDS011;5747;56.748;13.882;2023-09-18T01:12:08;5.40;;;4.10;;
11384;SDS011;5747;56.748;13.882;2023-09-18T01:14:48;5.53;;;3.47;;
11384;SDS011;5747;56.748;13.882;2023-09-18T01:17:23;5.30;;;3.87;;
11384;SDS011;5747;56.748;13.882;2023-09-18T01:19:53;4.80;;;3.60;;
11384;SDS011;5747;56.748;13.882;2023-09-18T01:22:21;5.03;;;3.60;;
11384;SDS011;5747;56.748;13.882;2023-09-18T01:24:51;4.07;;;3.50;;
11384;SDS011;5747;56.748;13.882;2023-09-18T01:27:20;6.43;;;3.67;;
11384;SDS011;5747;56.748;13.882;2023-09-18T01:29:50;7.13;;;3.30;;
11384;SDS011;5747;56.748;13.882;2023-09-18T01:32:19;7.97;;;3.87;;
11384;SDS011;5747;56.748;13.882;2023-09-18T01:34:53;5.40;;;3.80;;
11384;SDS011;5747;56.748;13.882;2023-09-18T01:37:24;4.90;;;3.50;;
11384;SDS011;5747;56.748;13.882;2023-09-18T01:39:56;4.20;;;3.20;;
11384;SDS011;5747;56.748;13.882;2023-09-18T01:42:27;3.70;;;3.20;;
11384;SDS011;5747;56.748;13.882;2023-09-18T01:44:56;5.80;;;3.60;;
11384;SDS011;5747;56.748;13.882;2023-09-18T01:47:24;6.47;;;3.20;;
11384;SDS011;5747;56.748;13.882;2023-09-18T01:49:53;5.23;;;3.50;;
11384;SDS011;5747;56.748;13.882;2023-09-18T01:52:22;4.13;;;3.30;;
11384;SDS011;5747;56.748;13.882;2023-09-18T01:54:50;4.10;;;3.20;;
11384;SDS011;5747;56.748;13.882;2023-09-18T01:57:20;5.43;;;3.23;;
11384;SDS011;5747;56.748;13.882;2023-09-18T01:59:48;5.33;;;3.47;;
11384;SDS011;5747;56.748;13.882;2023-09-18T02:02:17;5.60;;;3.27;;
11384;SDS011;5747;56.748;13.882;2023-09-18T02:04:54;4.33;;;3.10;;
11384;SDS011;5747;56.748;13.882;2023-09-18T02:07:35;5.87;;;3.30;;
11384;SDS011;5747;56.748;13.882;2023-09-18T02:10:04;4.50;;;3.13;;
11384;SDS011;5747;56.748;13.882;2023-09-18T02:12:34;5.80;;;3.30;;
11384;SDS011;5747;56.748;13.882;2023-09-18T02:15:03;3.40;;;3.00;;
11384;SDS011;5747;56.748;13.882;2023-09-18T02:17:32;4.77;;;3.10;;
11384;SDS011;5747;56.748;13.882;2023-09-18T02:20:01;3.97;;;3.20;;
11384;SDS011;5747;56.748;13.882;2023-09-18T02:22:31;5.77;;;3.77;;
11384;SDS011;5747;56.748;13.882;2023-09-18T02:25:00;3.90;;;2.97;;
11384;SDS011;5747;56.748;13.882;2023-09-18T02:27:28;6.47;;;3.00;;
11384;SDS011;5747;56.748;13.882;2023-09-18T02:29:57;4.13;;;3.20;;
11384;SDS011;5747;56.748;13.882;2023-09-18T02:32:25;3.43;;;2.93;;
11384;SDS011;5747;56.748;13.882;2023-09-18T02:34:54;4.83;;;3.27;;
11384;SDS011;5747;56.748;13.882;2023-09-18T02:37:22;3.73;;;3.00;;
11384;SDS011;5747;56.748;13.882;2023-09-18T02:39:50;3.70;;;2.90;;
11384;SDS011;5747;56.748;13.882;2023-09-18T02:42:18;3.73;;;2.80;;
11384;SDS011;5747;56.748;13.882;2023-09-18T02:44:46;3.13;;;2.53;;
11384;SDS011;5747;56.748;13.882;2023-09-18T02:47:16;5.33;;;3.20;;
11384;SDS011;5747;56.748;13.882;2023-09-18T02:49:45;4.67;;;2.67;;
11384;SDS011;5747;56.748;13.882;2023-09-18T02:52:13;3.47;;;2.90;;
11384;SDS011;5747;56.748;13.882;2023-09-18T02:54:41;3.60;;;2.53;;
11384;SDS011;5747;56.748;13.882;2023-09-18T02:57:09;3.37;;;2.80;;
11384;SDS011;5747;56.748;13.882;2023-09-18T02:59:37;4.67;;;2.80;;
11384;SDS011;5747;56.748;13.882;2023-09-18T03:02:05;2.97;;;2.70;;
11384;SDS011;5747;56.748;13.882;2023-09-18T03:04:35;3.50;;;2.83;;
11384;SDS011;5747;56.748;13.882;2023-09-18T03:07:04;3.57;;;2.97;;
11384;SDS011;5747;56.748;13.882;2023-09-18T03:09:32;3.77;;;2.83;;
11384;SDS011;5747;56.748;13.882;2023-09-18T03:12:02;5.10;;;2.60;;
11384;SDS011;5747;56.748;13.882;2023-09-18T03:14:30;3.37;;;2.70;;
11384;SDS011;5747;56.748;13.882;2023-09-18T03:16:59;4.73;;;3.07;;
11384;SDS011;5747;56.748;13.882;2023-09-18T03:19:27;6.27;;;3.10;;
11384;SDS011;5747;56.748;13.882;2023-09-18T03:21:57;6.30;;;3.47;;
11384;SDS011;5747;56.748;13.882;2023-09-18T03:24:25;5.80;;;2.93;;
11384;SDS011;5747;56.748;13.882;2023-09-18T03:26:53;5.10;;;2.90;;
11384;SDS011;5747;56.748;13.882;2023-09-18T03:29:21;3.23;;;2.70;;
11384;SDS011;5747;56.748;13.882;2023-09-18T03:31:50;4.00;;;2.93;;
11384;SDS011;5747;56.748;13.882;2023-09-18T03:34:19;4.77;;;3.10;;
11384;SDS011;5747;56.748;13.882;2023-09-18T03:36:47;5.30;;;3.20;;
11384;SDS011;5747;56.748;13.882;2023-09-18T03:39:17;3.97;;;2.87;;
11384;SDS011;5747;56.748;13.882;2023-09-18T03:41:45;4.73;;;2.70;;
11384;SDS011;5747;56.748;13.882;2023-09-18T03:44:14;3.43;;;2.87;;
11384;SDS011;5747;56.748;13.882;2023-09-18T03:46:43;5.63;;;2.90;;
11384;SDS011;5747;56.748;13.882;2023-09-18T03:49:11;4.63;;;3.00;;
11384;SDS011;5747;56.748;13.882;2023-09-18T03:51:39;4.33;;;2.83;;
11384;SDS011;5747;56.748;13.882;2023-09-18T03:54:07;3.43;;;2.70;;
11384;SDS011;5747;56.748;13.882;2023-09-18T03:56:37;3.67;;;2.67;;
11384;SDS011;5747;56.748;13.882;2023-09-18T03:59:05;4.93;;;2.50;;
11384;SDS011;5747;56.748;13.882;2023-09-18T04:01:33;3.60;;;2.60;;
11384;SDS011;5747;56.748;13.882;2023-09-18T04:04:01;5.50;;;2.80;;
11384;SDS011;5747;56.748;13.882;2023-09-18T04:06:35;3.33;;;2.37;;
11384;SDS011;5747;56.748;13.882;2023-09-18T04:09:05;5.47;;;3.10;;
11384;SDS011;5747;56.748;13.882;2023-09-18T04:11:33;3.43;;;2.43;;
11384;SDS011;5747;56.748;13.882;2023-09-18T04:14:05;2.50;;;2.30;;
11384;SDS011;5747;56.748;13.882;2023-09-18T04:16:33;3.77;;;2.83;;
11384;SDS011;5747;56.748;13.882;2023-09-18T04:19:02;6.20;;;2.80;;
11384;SDS011;5747;56.748;13.882;2023-09-18T04:21:30;4.27;;;2.37;;
11384;SDS011;5747;56.748;13.882;2023-09-18T04:23:58;3.83;;;2.73;;
11384;SDS011;5747;56.748;13.882;2023-09-18T04:26:26;3.33;;;2.73;;
11384;SDS011;5747;56.748;13.882;2023-09-18T04:28:57;4.90;;;2.80;;
11384;SDS011;5747;56.748;13.882;2023-09-18T04:31:27;3.33;;;2.50;;
11384;SDS011;5747;56.748;13.882;2023-09-18T04:33:56;2.60;;;2.30;;
11384;SDS011;5747;56.748;13.882;2023-09-18T04:36:24;3.50;;;2.03;;
11384;SDS011;5747;56.748;13.882;2023-09-18T04:38:52;4.83;;;2.53;;
11384;SDS011;5747;56.748;13.882;2023-09-18T04:41:20;4.37;;;2.33;;
11384;SDS011;5747;56.748;13.882;2023-09-18T04:43:51;6.70;;;2.50;;
11384;SDS011;5747;56.748;13.882;2023-09-18T04:46:19;3.80;;;2.47;;
11384;SDS011;5747;56.748;13.882;2023-09-18T04:48:49;6.37;;;2.60;;
11384;SDS011;5747;56.748;13.882;2023-09-18T04:51:17;3.40;;;2.50;;
11384;SDS011;5747;56.748;13.882;2023-09-18T04:53:45;3.87;;;2.43;;
11384;SDS011;5747;56.748;13.882;2023-09-18T04:56:13;2.80;;;2.20;;
11384;SDS011;5747;56.748;13.882;2023-09-18T04:58:42;3.87;;;2.50;;
11384;SDS011;5747;56.748;13.882;2023-09-18T05:01:10;3.33;;;2.20;;
11384;SDS011;5747;56.748;13.882;2023-09-18T05:03:39;4.70;;;2.30;;
11384;SDS011;5747;56.748;13.882;2023-09-18T05:06:11;2.80;;;2.13;;
11384;SDS011;5747;56.748;13.882;2023-09-18T05:08:39;5.40;;;2.47;;
11384;SDS011;5747;56.748;13.882;2023-09-18T05:11:07;3.90;;;2.47;;
11384;SDS011;5747;56.748;13.882;2023-09-18T05:13:38;5.80;;;2.23;;
11384;SDS011;5747;56.748;13.882;2023-09-18T05:16:07;4.83;;;2.50;;
11384;SDS011;5747;56.748;13.882;2023-09-18T05:18:35;3.50;;;2.20;;
11384;SDS011;5747;56.748;13.882;2023-09-18T05:21:04;4.80;;;2.20;;
11384;SDS011;5747;56.748;13.882;2023-09-18T05:23:33;2.53;;;1.90;;
11384;SDS011;5747;56.748;13.882;2023-09-18T05:26:02;3.17;;;2.20;;
11384;SDS011;5747;56.748;13.882;2023-09-18T05:28:30;2.90;;;2.17;;
11384;SDS011;5747;56.748;13.882;2023-09-18T05:30:58;5.20;;;2.27;;
11384;SDS011;5747;56.748;13.882;2023-09-18T05:33:26;3.87;;;2.20;;
11384;SDS011;5747;56.748;13.882;2023-09-18T05:35:55;5.03;;;2.30;;
11384;SDS011;5747;56.748;13.882;2023-09-18T05:38:24;4.83;;;2.10;;
11384;SDS011;5747;56.748;13.882;2023-09-18T05:40:53;2.17;;;1.97;;
11384;SDS011;5747;56.748;13.882;2023-09-18T05:43:22;4.20;;;2.30;;
11384;SDS011;5747;56.748;13.882;2023-09-18T05:45:50;3.23;;;2.37;;
11384;SDS011;5747;56.748;13.882;2023-09-18T05:48:18;4.47;;;2.17;;
11384;SDS011;5747;56.748;13.882;2023-09-18T05:50:46;5.17;;;2.50;;
11384;SDS011;5747;56.748;13.882;2023-09-18T05:53:15;5.20;;;2.00;;
11384;SDS011;5747;56.748;13.882;2023-09-18T05:55:43;4.90;;;2.20;;
11384;SDS011;5747;56.748;13.882;2023-09-18T05:58:12;3.40;;;2.00;;
11384;SDS011;5747;56.748;13.882;2023-09-18T06:00:40;4.60;;;2.40;;
11384;SDS011;5747;56.748;13.882;2023-09-18T06:03:08;2.80;;;2.10;;
11384;SDS011;5747;56.748;13.882;2023-09-18T06:05:39;3.93;;;2.30;;
11384;SDS011;5747;56.748;13.882;2023-09-18T06:08:07;2.97;;;2.43;;
11384;SDS011;5747;56.748;13.882;2023-09-18T06:10:35;3.70;;;2.33;;
11384;SDS011;5747;56.748;13.882;2023-09-18T06:13:03;3.23;;;2.40;;
11384;SDS011;5747;56.748;13.882;2023-09-18T06:15:34;5.23;;;2.40;;
11384;SDS011;5747;56.748;13.882;2023-09-18T06:18:02;3.60;;;2.37;;
11384;SDS011;5747;56.748;13.882;2023-09-18T06:20:31;4.53;;;2.17;;
11384;SDS011;5747;56.748;13.882;2023-09-18T06:22:59;4.07;;;2.37;;
11384;SDS011;5747;56.748;13.882;2023-09-18T06:25:27;3.33;;;2.10;;
11384;SDS011;5747;56.748;13.882;2023-09-18T06:27:55;3.30;;;2.30;;
11384;SDS011;5747;56.748;13.882;2023-09-18T06:30:23;2.80;;;2.33;;
11384;SDS011;5747;56.748;13.882;2023-09-18T06:32:53;4.60;;;2.47;;
11384;SDS011;5747;56.748;13.882;2023-09-18T06:35:21;3.83;;;2.30;;
11384;SDS011;5747;56.748;13.882;2023-09-18T06:37:49;5.10;;;2.40;;
11384;SDS011;5747;56.748;13.882;2023-09-18T06:40:17;3.63;;;2.30;;
11384;SDS011;5747;56.748;13.882;2023-09-18T06:42:45;6.60;;;2.30;;
11384;SDS011;5747;56.748;13.882;2023-09-18T06:45:13;3.17;;;2.50;;
11384;SDS011;5747;56.748;13.882;2023-09-18T06:47:41;3.50;;;2.33;;
11384;SDS011;5747;56.748;13.882;2023-09-18T06:50:11;3.33;;;2.40;;
11384;SDS011;5747;56.748;13.882;2023-09-18T06:52:39;3.70;;;1.97;;
11384;SDS011;5747;56.748;13.882;2023-09-18T06:55:08;2.83;;;2.30;;
11384;SDS011;5747;56.748;13.882;2023-09-18T06:57:37;4.33;;;2.50;;
11384;SDS011;5747;56.748;13.882;2023-09-18T07:00:05;3.17;;;2.40;;
11384;SDS011;5747;56.748;13.882;2023-09-18T07:02:34;3.30;;;2.50;;
11384;SDS011;5747;56.748;13.882;2023-09-18T07:05:03;3.07;;;2.40;;
11384;SDS011;5747;56.748;13.882;2023-09-18T07:07:33;3.33;;;2.57;;
11384;SDS011;5747;56.748;13.882;2023-09-18T07:10:01;3.27;;;2.50;;
11384;SDS011;5747;56.748;13.882;2023-09-18T07:12:31;4.63;;;2.87;;
11384;SDS011;5747;56.748;13.882;2023-09-18T07:15:00;3.30;;;2.57;;
11384;SDS011;5747;56.748;13.882;2023-09-18T07:17:31;5.73;;;2.73;;
11384;SDS011;5747;56.748;13.882;2023-09-18T07:20:00;4.47;;;2.60;;
11384;SDS011;5747;56.748;13.882;2023-09-18T07:22:37;3.87;;;2.63;;
11384;SDS011;5747;56.748;13.882;2023-09-18T07:25:05;5.93;;;2.70;;
11384;SDS011;5747;56.748;13.882;2023-09-18T07:27:34;5.70;;;2.90;;
11384;SDS011;5747;56.748;13.882;2023-09-18T07:30:05;3.97;;;2.90;;
11384;SDS011;5747;56.748;13.882;2023-09-18T07:32:34;4.17;;;3.10;;
11384;SDS011;5747;56.748;13.882;2023-09-18T07:35:05;3.93;;;2.70;;
11384;SDS011;5747;56.748;13.882;2023-09-18T07:37:34;5.03;;;2.57;;
11384;SDS011;5747;56.748;13.882;2023-09-18T07:40:05;5.23;;;2.73;;
11384;SDS011;5747;56.748;13.882;2023-09-18T07:42:34;3.67;;;2.90;;
11384;SDS011;5747;56.748;13.882;2023-09-18T07:45:02;4.10;;;3.07;;
11384;SDS011;5747;56.748;13.882;2023-09-18T07:47:30;5.10;;;3.60;;
11384;SDS011;5747;56.748;13.882;2023-09-18T07:49:59;5.90;;;3.13;;
11384;SDS011;5747;56.748;13.882;2023-09-18T07:52:27;7.20;;;3.83;;
11384;SDS011;5747;56.748;13.882;2023-09-18T07:54:56;4.13;;;3.30;;
11384;SDS011;5747;56.748;13.882;2023-09-18T07:57:27;5.07;;;3.60;;
11384;SDS011;5747;56.748;13.882;2023-09-18T07:59:57;4.37;;;3.63;;
11384;SDS011;5747;56.748;13.882;2023-09-18T08:02:25;6.07;;;4.07;;
11384;SDS011;5747;56.748;13.882;2023-09-18T08:04:55;5.50;;;3.50;;
11384;SDS011;5747;56.748;13.882;2023-09-18T08:07:23;5.73;;;3.80;;
11384;SDS011;5747;56.748;13.882;2023-09-18T08:09:51;7.40;;;3.83;;
11384;SDS011;5747;56.748;13.882;2023-09-18T08:12:20;6.97;;;4.10;;
11384;SDS011;5747;56.748;13.882;2023-09-18T08:14:49;4.47;;;3.70;;
11384;SDS011;5747;56.748;13.882;2023-09-18T08:17:17;6.20;;;4.33;;
11384;SDS011;5747;56.748;13.882;2023-09-18T08:19:45;6.53;;;4.20;;
11384;SDS011;5747;56.748;13.882;2023-09-18T08:22:18;5.90;;;4.40;;
11384;SDS011;5747;56.748;13.882;2023-09-18T08:24:47;7.00;;;4.00;;
11384;SDS011;5747;56.748;13.882;2023-09-18T08:27:16;7.30;;;4.97;;
11384;SDS011;5747;56.748;13.882;2023-09-18T08:29:44;5.93;;;4.40;;
11384;SDS011;5747;56.748;13.882;2023-09-18T08:32:14;7.93;;;4.50;;
11384;SDS011;5747;56.748;13.882;2023-09-18T08:34:42;6.87;;;4.50;;
11384;SDS011;5747;56.748;13.882;2023-09-18T08:37:11;6.90;;;4.87;;
11384;SDS011;5747;56.748;13.882;2023-09-18T08:39:39;7.30;;;4.80;;
11384;SDS011;5747;56.748;13.882;2023-09-18T08:42:07;8.20;;;5.43;;
11384;SDS011;5747;56.748;13.882;2023-09-18T08:44:39;6.83;;;4.73;;
11384;SDS011;5747;56.748;13.882;2023-09-18T08:47:09;7.33;;;5.13;;
11384;SDS011;5747;56.748;13.882;2023-09-18T08:49:42;9.67;;;5.33;;
11384;SDS011;5747;56.748;13.882;2023-09-18T08:52:11;7.33;;;5.30;;
11384;SDS011;5747;56.748;13.882;2023-09-18T08:54:41;7.30;;;5.40;;
11384;SDS011;5747;56.748;13.882;2023-09-18T08:57:10;7.63;;;5.60;;
11384;SDS011;5747;56.748;13.882;2023-09-18T08:59:39;7.20;;;6.00;;
11384;SDS011;5747;56.748;13.882;2023-09-18T09:02:07;8.60;;;5.67;;
11384;SDS011;5747;56.748;13.882;2023-09-18T09:04:38;7.80;;;5.90;;
11384;SDS011;5747;56.748;13.882;2023-09-18T09:07:08;8.47;;;5.90;;
11384;SDS011;5747;56.748;13.882;2023-09-18T09:09:36;10.67;;;6.37;;
11384;SDS011;5747;56.748;13.882;2023-09-18T09:12:05;9.67;;;6.90;;
11384;SDS011;5747;56.748;13.882;2023-09-18T09:14:33;9.47;;;6.30;;
11384;SDS011;5747;56.748;13.882;2023-09-18T09:17:02;7.83;;;6.77;;
11384;SDS011;5747;56.748;13.882;2023-09-18T09:19:31;10.20;;;6.97;;
11384;SDS011;5747;56.748;13.882;2023-09-18T09:22:03;11.07;;;8.20;;
11384;SDS011;5747;56.748;13.882;2023-09-18T09:24:39;11.67;;;7.57;;
11384;SDS011;5747;56.748;13.882;2023-09-18T09:27:08;11.43;;;7.50;;
11384;SDS011;5747;56.748;13.882;2023-09-18T09:29:37;9.77;;;7.93;;
11384;SDS011;5747;56.748;13.882;2023-09-18T09:32:12;10.60;;;7.73;;
11384;SDS011;5747;56.748;13.882;2023-09-18T09:34:41;9.80;;;8.03;;
11384;SDS011;5747;56.748;13.882;2023-09-18T09:37:10;14.93;;;8.43;;
11384;SDS011;5747;56.748;13.882;2023-09-18T09:39:49;10.97;;;8.30;;
11384;SDS011;5747;56.748;13.882;2023-09-18T09:42:18;11.70;;;8.83;;
11384;SDS011;5747;56.748;13.882;2023-09-18T09:45:00;12.13;;;8.23;;
11384;SDS011;5747;56.748;13.882;2023-09-18T09:47:32;11.43;;;9.10;;
11384;SDS011;5747;56.748;13.882;2023-09-18T09:50:05;11.63;;;8.53;;
11384;SDS011;5747;56.748;13.882;2023-09-18T09:52:40;11.23;;;8.73;;
11384;SDS011;5747;56.748;13.882;2023-09-18T09:55:25;12.53;;;9.07;;
11384;SDS011;5747;56.748;13.882;2023-09-18T09:57:55;14.17;;;9.23;;
11384;SDS011;5747;56.748;13.882;2023-09-18T10:00:28;12.23;;;9.20;;
11384;SDS011;5747;56.748;13.882;2023-09-18T10:03:04;12.33;;;9.37;;
11384;SDS011;5747;56.748;13.882;2023-09-18T10:05:36;14.07;;;9.60;;
11384;SDS011;5747;56.748;13.882;2023-09-18T10:08:06;13.80;;;9.77;;
11384;SDS011;5747;56.748;13.882;2023-09-18T10:10:38;12.83;;;9.83;;
11384;SDS011;5747;56.748;13.882;2023-09-18T10:13:12;11.80;;;9.53;;
11384;SDS011;5747;56.748;13.882;2023-09-18T10:15:47;16.93;;;10.23;;
11384;SDS011;5747;56.748;13.882;2023-09-18T10:18:18;13.73;;;10.43;;
11384;SDS011;5747;56.748;13.882;2023-09-18T10:20:55;13.50;;;9.70;;
11384;SDS011;5747;56.748;13.882;2023-09-18T10:23:32;14.37;;;9.77;;
11384;SDS011;5747;56.748;13.882;2023-09-18T10:26:12;14.03;;;9.90;;
11384;SDS011;5747;56.748;13.882;2023-09-18T10:28:46;15.77;;;10.97;;
11384;SDS011;5747;56.748;13.882;2023-09-18T10:31:19;14.67;;;10.90;;
11384;SDS011;5747;56.748;13.882;2023-09-18T10:33:48;13.50;;;11.10;;
11384;SDS011;5747;56.748;13.882;2023-09-18T10:36:17;0.60;;;0.60;;
11384;SDS011;5747;56.748;13.882;2023-09-18T10:38:47;1.00;;;1.00;;
11384;SDS011;5747;56.748;13.882;2023-09-18T10:41:20;1.70;;;1.27;;
11384;SDS011;5747;56.748;13.882;2023-09-18T10:43:51;0.40;;;0.40;;
11384;SDS011;5747;56.748;13.882;2023-09-18T10:46:20;0.40;;;0.40;;
11384;SDS011;5747;56.748;13.882;2023-09-18T10:48:49;0.40;;;0.40;;
11384;SDS011;5747;56.748;13.882;2023-09-18T10:51:19;0.23;;;0.23;;
11384;SDS011;5747;56.748;13.882;2023-09-18T10:53:48;0.40;;;0.40;;
11384;SDS011;5747;56.748;13.882;2023-09-18T10:56:20;0.30;;;0.30;;
11384;SDS011;5747;56.748;13.882;2023-09-18T10:58:55;0.30;;;0.30;;
11384;SDS011;5747;56.748;13.882;2023-09-18T11:01:25;0.30;;;0.30;;
11384;SDS011;5747;56.748;13.882;2023-09-18T11:03:57;0.40;;;0.40;;
11384;SDS011;5747;56.748;13.882;2023-09-18T11:06:28;10.67;;;7.23;;
11384;SDS011;5747;56.748;13.882;2023-09-18T11:09:00;14.60;;;10.07;;
11384;SDS011;5747;56.748;13.882;2023-09-18T11:11:33;16.00;;;12.40;;
11384;SDS011;5747;56.748;13.882;2023-09-18T11:14:02;18.57;;;12.93;;
11384;SDS011;5747;56.748;13.882;2023-09-18T11:16:37;18.67;;;13.40;;
11384;SDS011;5747;56.748;13.882;2023-09-18T11:19:09;15.53;;;12.90;;
11384;SDS011;5747;56.748;13.882;2023-09-18T11:21:40;16.80;;;12.37;;
11384;SDS011;5747;56.748;13.882;2023-09-18T11:24:14;14.60;;;13.00;;
11384;SDS011;5747;56.748;13.882;2023-09-18T11:26:46;16.30;;;13.27;;
11384;SDS011;5747;56.748;13.882;2023-09-18T11:29:16;15.73;;;12.60;;
11384;SDS011;5747;56.748;13.882;2023-09-18T11:31:49;16.07;;;12.63;;
11384;SDS011;5747;56.748;13.882;2023-09-18T11:34:21;18.87;;;12.73;;
11384;SDS011;5747;56.748;13.882;2023-09-18T11:36:50;14.33;;;12.37;;
11384;SDS011;5747;56.748;13.882;2023-09-18T11:39:34;17.87;;;12.63;;
11384;SDS011;5747;56.748;13.882;2023-09-18T11:42:10;15.40;;;13.00;;
11384;SDS011;5747;56.748;13.882;2023-09-18T11:44:39;13.60;;;12.03;;
11384;SDS011;5747;56.748;13.882;2023-09-18T11:47:14;14.67;;;13.10;;
11384;SDS011;5747;56.748;13.882;2023-09-18T11:49:49;15.90;;;12.67;;
11384;SDS011;5747;56.748;13.882;2023-09-18T11:52:22;13.97;;;11.93;;
11384;SDS011;5747;56.748;13.882;2023-09-18T11:54:52;14.27;;;12.47;;
11384;SDS011;5747;56.748;13.882;2023-09-18T11:57:24;14.30;;;12.80;;
11384;SDS011;5747;56.748;13.882;2023-09-18T11:59:54;13.83;;;11.97;;
11384;SDS011;5747;56.748;13.882;2023-09-18T12:02:26;13.70;;;11.40;;
11384;SDS011;5747;56.748;13.882;2023-09-18T12:05:05;13.00;;;11.80;;
11384;SDS011;5747;56.748;13.882;2023-09-18T12:07:38;13.73;;;11.70;;
11384;SDS011;5747;56.748;13.882;2023-09-18T12:10:10;14.73;;;11.17;;
11384;SDS011;5747;56.748;13.882;2023-09-18T12:12:40;15.87;;;12.23;;
11384;SDS011;5747;56.748;13.882;2023-09-18T12:15:10;16.27;;;12.47;;
11384;SDS011;5747;56.748;13.882;2023-09-18T12:17:39;13.37;;;11.40;;
11384;SDS011;5747;56.748;13.882;2023-09-18T12:20:09;11.37;;;9.30;;
11384;SDS011;5747;56.748;13.882;2023-09-18T12:22:47;12.30;;;10.10;;
11384;SDS011;5747;56.748;13.882;2023-09-18T12:25:16;12.30;;;9.63;;
11384;SDS011;5747;56.748;13.882;2023-09-18T12:27:47;14.47;;;9.93;;
11384;SDS011;5747;56.748;13.882;2023-09-18T12:30:19;11.73;;;9.37;;
11384;SDS011;5747;56.748;13.882;2023-09-18T12:32:50;10.30;;;9.10;;
11384;SDS011;5747;56.748;13.882;2023-09-18T12:35:20;11.20;;;9.87;;
11384;SDS011;5747;56.748;13.882;2023-09-18T12:37:49;10.97;;;9.70;;
11384;SDS011;5747;56.748;13.882;2023-09-18T12:40:21;10.33;;;9.23;;
11384;SDS011;5747;56.748;13.882;2023-09-18T12:42:51;9.90;;;8.97;;
11384;SDS011;5747;56.748;13.882;2023-09-18T12:45:21;9.63;;;8.63;;
11384;SDS011;5747;56.748;13.882;2023-09-18T12:47:50;12.87;;;9.03;;
11384;SDS011;5747;56.748;13.882;2023-09-18T12:50:18;10.30;;;8.80;;
11384;SDS011;5747;56.748;13.882;2023-09-18T12:52:46;12.83;;;8.80;;
11384;SDS011;5747;56.748;13.882;2023-09-18T12:55:21;9.90;;;8.57;;
11384;SDS011;5747;56.748;13.882;2023-09-18T12:57:52;8.87;;;7.97;;
11384;SDS011;5747;56.748;13.882;2023-09-18T13:00:22;9.00;;;8.20;;
11384;SDS011;5747;56.748;13.882;2023-09-18T13:02:53;9.63;;;8.33;;
11384;SDS011;5747;56.748;13.882;2023-09-18T13:05:23;9.53;;;7.67;;
11384;SDS011;5747;56.748;13.882;2023-09-18T13:07:53;9.07;;;7.93;;
11384;SDS011;5747;56.748;13.882;2023-09-18T13:10:22;8.63;;;7.53;;
11384;SDS011;5747;56.748;13.882;2023-09-18T13:12:55;9.37;;;7.97;;
11384;SDS011;5747;56.748;13.882;2023-09-18T13:15:26;8.53;;;7.63;;
11384;SDS011;5747;56.748;13.882;2023-09-18T13:17:55;9.00;;;7.33;;
11384;SDS011;5747;56.748;13.882;2023-09-18T13:20:25;9.53;;;7.27;;
11384;SDS011;5747;56.748;13.882;2023-09-18T13:22:56;8.60;;;7.30;;
11384;SDS011;5747;56.748;13.882;2023-09-18T13:25:28;7.83;;;6.70;;
11384;SDS011;5747;56.748;13.882;2023-09-18T13:28:00;10.47;;;7.10;;
11384;SDS011;5747;56.748;13.882;2023-09-18T13:30:30;8.87;;;6.93;;
11384;SDS011;5747;56.748;13.882;2023-09-18T13:33:04;8.70;;;7.03;;
11384;SDS011;5747;56.748;13.882;2023-09-18T13:35:33;8.73;;;6.80;;
11384;SDS011;5747;56.748;13.882;2023-09-18T13:38:05;9.33;;;7.00;;
11384;SDS011;5747;56.748;13.882;2023-09-18T13:40:34;7.53;;;6.83;;
11384;SDS011;5747;56.748;13.882;2023-09-18T13:43:05;7.73;;;6.93;;
11384;SDS011;5747;56.748;13.882;2023-09-18T13:45:34;8.33;;;6.70;;
11384;SDS011;5747;56.748;13.882;2023-09-18T13:48:03;7.50;;;6.70;;
11384;SDS011;5747;56.748;13.882;2023-09-18T13:50:32;9.73;;;6.87;;
11384;SDS011;5747;56.748;13.882;2023-09-18T13:53:01;8.10;;;6.43;;
11384;SDS011;5747;56.748;13.882;2023-09-18T13:55:32;9.23;;;7.23;;
11384;SDS011;5747;56.748;13.882;2023-09-18T13:58:01;10.63;;;7.17;;
11384;SDS011;5747;56.748;13.882;2023-09-18T14:00:31;9.70;;;6.67;;
11384;SDS011;5747;56.748;13.882;2023-09-18T14:03:00;9.00;;;7.00;;
11384;SDS011;5747;56.748;13.882;2023-09-18T14:05:29;10.73;;;6.63;;
11384;SDS011;5747;56.748;13.882;2023-09-18T14:08:00;9.20;;;6.80;;
11384;SDS011;5747;56.748;13.882;2023-09-18T14:10:29;9.33;;;7.07;;
11384;SDS011;5747;56.748;13.882;2023-09-18T14:12:57;8.17;;;7.30;;
11384;SDS011;5747;56.748;13.882;2023-09-18T14:15:25;7.60;;;6.90;;
11384;SDS011;5747;56.748;13.882;2023-09-18T14:17:57;8.90;;;6.97;;
11384;SDS011;5747;56.748;13.882;2023-09-18T14:20:25;10.07;;;7.40;;
11384;SDS011;5747;56.748;13.882;2023-09-18T14:22:53;11.03;;;7.73;;
11384;SDS011;5747;56.748;13.882;2023-09-18T14:25:21;8.40;;;7.17;;
11384;SDS011;5747;56.748;13.882;2023-09-18T14:27:49;7.93;;;7.13;;
11384;SDS011;5747;56.748;13.882;2023-09-18T14:30:18;8.57;;;6.73;;
11384;SDS011;5747;56.748;13.882;2023-09-18T14:32:46;7.63;;;6.80;;
11384;SDS011;5747;56.748;13.882;2023-09-18T14:35:18;8.53;;;6.90;;
11384;SDS011;5747;56.748;13.882;2023-09-18T14:37:46;7.50;;;6.77;;
11384;SDS011;5747;56.748;13.882;2023-09-18T14:40:15;9.83;;;7.23;;
11384;SDS011;5747;56.748;13.882;2023-09-18T14:42:44;6.67;;;6.03;;
11384;SDS011;5747;56.748;13.882;2023-09-18T14:45:12;8.47;;;6.83;;
11384;SDS011;5747;56.748;13.882;2023-09-18T14:47:40;7.50;;;6.83;;
11384;SDS011;5747;56.748;13.882;2023-09-18T14:50:09;7.97;;;6.50;;
11384;SDS011;5747;56.748;13.882;2023-09-18T14:52:38;8.10;;;6.43;;
11384;SDS011;5747;56.748;13.882;2023-09-18T14:55:07;7.77;;;6.63;;
11384;SDS011;5747;56.748;13.882;2023-09-18T14:57:39;11.03;;;7.23;;